createdAt,value
2023-03-18T00:00:19.083Z,1.40
2023-03-18T00:02:48.878Z,1.60
2023-03-18T00:05:19.858Z,1.40
2023-03-18T00:07:49.467Z,1.60
2023-03-18T00:10:18.773Z,1.52
2023-03-18T00:12:47.449Z,1.50
2023-03-18T00:15:18.288Z,2.03
2023-03-18T00:17:46.782Z,1.60
2023-03-18T00:20:18.265Z,1.60
2023-03-18T00:22:48.024Z,1.60
2023-03-18T00:25:16.667Z,1.90
2023-03-18T00:27:45.561Z,1.70
2023-03-18T00:30:14.934Z,1.70
2023-03-18T00:32:43.576Z,1.95
2023-03-18T00:35:12.266Z,1.95
2023-03-18T00:37:42.435Z,1.85
2023-03-18T00:40:17.439Z,1.95
2023-03-18T00:42:50.500Z,1.90
2023-03-18T00:45:19.308Z,2.08
2023-03-18T00:47:50.234Z,2.05
2023-03-18T00:50:19.308Z,1.67
2023-03-18T00:52:47.947Z,1.70
2023-03-18T00:55:17.963Z,1.83
2023-03-18T00:57:47.113Z,1.70
2023-03-18T01:00:17.559Z,1.85
2023-03-18T01:02:46.117Z,2.00
2023-03-18T01:05:15.212Z,2.00
2023-03-18T01:07:43.721Z,1.75
2023-03-18T01:10:14.542Z,1.52
2023-03-18T01:12:46.708Z,1.80
2023-03-18T01:15:18.719Z,1.50
2023-03-18T01:17:47.816Z,1.63
2023-03-18T01:20:19.458Z,1.80
2023-03-18T01:22:51.541Z,2.05
2023-03-18T01:25:22.018Z,1.55
2023-03-18T01:27:55.624Z,1.65
2023-03-18T01:30:24.696Z,1.80
2023-03-18T01:32:55.777Z,1.85
2023-03-18T01:35:25.632Z,1.80
2023-03-18T01:37:54.393Z,1.58
2023-03-18T01:40:23.407Z,1.90
2023-03-18T01:43:01.334Z,2.00
2023-03-18T01:45:36.070Z,1.90
2023-03-18T01:48:04.795Z,2.03
2023-03-18T01:50:35.616Z,2.13
2023-03-18T01:53:07.997Z,2.40
2023-03-18T01:55:37.852Z,2.03
2023-03-18T01:58:12.683Z,2.13
2023-03-18T02:00:46.032Z,1.90
2023-03-18T02:03:15.342Z,2.10
2023-03-18T02:05:44.440Z,2.08
2023-03-18T02:08:12.991Z,2.20
2023-03-18T02:10:41.671Z,2.15
2023-03-18T02:13:16.074Z,2.33
2023-03-18T02:15:50.583Z,2.05
2023-03-18T02:18:23.197Z,2.20
2023-03-18T02:21:08.233Z,1.85
2023-03-18T02:26:20.161Z,1.85
2023-03-18T02:28:53.111Z,1.80
2023-03-18T02:31:22.728Z,1.80
2023-03-18T02:33:52.071Z,1.88
2023-03-18T02:36:24.906Z,1.95
2023-03-18T02:38:54.536Z,1.80
2023-03-18T02:41:31.745Z,2.00
2023-03-18T02:44:02.809Z,1.83
2023-03-18T02:46:49.147Z,1.70
2023-03-18T02:49:19.713Z,1.80
2023-03-18T02:51:49.259Z,1.60
2023-03-18T02:54:20.847Z,1.70
2023-03-18T02:56:50.438Z,1.92
2023-03-18T02:59:21.477Z,1.70
2023-03-18T03:01:51.622Z,2.00
2023-03-18T03:04:22.334Z,1.60
2023-03-18T03:06:51.228Z,2.10
2023-03-18T03:09:31.054Z,2.10
2023-03-18T03:11:59.624Z,2.10
2023-03-18T03:14:30.416Z,1.80
2023-03-18T03:17:01.864Z,1.67
2023-03-18T03:19:31.064Z,1.70
2023-03-18T03:22:00.693Z,1.70
2023-03-18T03:24:29.171Z,1.60
2023-03-18T03:26:57.640Z,1.75
2023-03-18T03:29:26.036Z,1.60
2023-03-18T03:32:00.728Z,1.88
2023-03-18T03:36:57.855Z,1.90
2023-03-18T03:39:28.407Z,1.98
2023-03-18T03:41:56.952Z,2.20
2023-03-18T03:44:25.928Z,1.92
2023-03-18T03:46:55.803Z,2.58
2023-03-18T03:49:25.915Z,2.25
2023-03-18T03:51:54.415Z,2.33
2023-03-18T03:54:25.676Z,2.30
2023-03-18T03:56:54.230Z,2.20
2023-03-18T03:59:22.794Z,2.30
2023-03-18T04:02:07.664Z,2.30
2023-03-18T04:04:36.664Z,2.38
2023-03-18T04:07:05.491Z,2.58
2023-03-18T04:09:34.962Z,2.63
2023-03-18T04:12:05.600Z,2.60
2023-03-18T04:14:34.498Z,2.25
2023-03-18T04:17:03.057Z,2.90
2023-03-18T04:19:33.973Z,2.38
2023-03-18T04:22:02.669Z,3.03
2023-03-18T04:24:32.422Z,3.00
2023-03-18T04:27:00.794Z,3.03
2023-03-18T04:29:29.282Z,3.10
2023-03-18T04:31:57.749Z,2.88
2023-03-18T04:34:26.584Z,3.20
2023-03-18T04:36:56.700Z,3.38
2023-03-18T04:39:26.460Z,3.42
2023-03-18T04:41:57.028Z,3.35
2023-03-18T04:44:25.975Z,3.33
2023-03-18T04:46:54.643Z,2.85
2023-03-18T04:49:25.332Z,3.60
2023-03-18T04:51:56.522Z,3.28
2023-03-18T04:54:31.034Z,3.47
2023-03-18T04:57:03.263Z,3.20
2023-03-18T04:59:34.113Z,3.15
2023-03-18T05:02:06.058Z,3.40
2023-03-18T05:04:36.446Z,3.40
2023-03-18T05:07:07.144Z,3.50
2023-03-18T05:09:39.000Z,3.40
2023-03-18T05:12:13.362Z,3.30
2023-03-18T05:14:42.722Z,2.80
2023-03-18T05:17:15.746Z,3.10
2023-03-18T05:19:49.093Z,2.75
2023-03-18T05:22:23.317Z,3.00
2023-03-18T05:24:58.274Z,3.20
2023-03-18T05:27:29.811Z,3.97
2023-03-18T05:30:15.481Z,3.25
2023-03-18T05:32:52.811Z,3.90
2023-03-18T05:35:26.058Z,3.70
2023-03-18T05:37:56.989Z,3.80
2023-03-18T05:40:25.591Z,3.97
2023-03-18T05:43:09.064Z,3.65
2023-03-18T05:45:44.211Z,3.72
2023-03-18T05:48:16.252Z,3.35
2023-03-18T05:50:52.456Z,3.13
2023-03-18T05:53:26.498Z,3.28
2023-03-18T05:56:03.874Z,3.15
2023-03-18T05:58:34.407Z,3.00
2023-03-18T06:01:26.165Z,3.47
2023-03-18T06:03:55.186Z,3.60
2023-03-18T06:06:23.782Z,3.05
2023-03-18T06:08:56.242Z,3.20
2023-03-18T06:11:25.603Z,3.13
2023-03-18T06:13:55.481Z,3.25
2023-03-18T06:16:24.812Z,3.28
2023-03-18T06:18:56.041Z,3.47
2023-03-18T06:21:24.542Z,2.67
2023-03-18T06:23:54.628Z,3.10
2023-03-18T06:26:24.049Z,3.25
2023-03-18T06:28:52.614Z,2.80
2023-03-18T06:31:21.839Z,2.88
2023-03-18T06:33:50.870Z,3.15
2023-03-18T06:36:19.818Z,3.38
2023-03-18T06:38:52.009Z,3.10
2023-03-18T06:41:22.449Z,2.67
2023-03-18T06:44:20.037Z,2.75
2023-03-18T06:46:48.868Z,2.80
2023-03-18T06:49:18.594Z,2.53
2023-03-18T06:51:54.460Z,2.53
2023-03-18T06:54:22.882Z,2.50
2023-03-18T06:56:52.943Z,2.72
2023-03-18T06:59:23.218Z,3.00
2023-03-18T07:01:52.252Z,2.80
2023-03-18T07:04:23.797Z,2.85
2023-03-18T07:06:53.167Z,2.50
2023-03-18T07:09:22.605Z,2.35
2023-03-18T07:11:56.697Z,2.58
2023-03-18T07:14:25.211Z,2.67
2023-03-18T07:16:53.947Z,2.65
2023-03-18T07:19:22.896Z,2.90
2023-03-18T07:21:51.891Z,3.15
2023-03-18T07:24:21.722Z,2.70
2023-03-18T07:26:51.694Z,2.70
2023-03-18T07:29:21.901Z,2.85
2023-03-18T07:31:51.182Z,2.72
2023-03-18T07:34:21.245Z,3.20
2023-03-18T07:36:49.809Z,2.67
2023-03-18T07:39:18.343Z,2.72
2023-03-18T07:41:46.755Z,3.15
2023-03-18T07:44:23.972Z,2.80
2023-03-18T07:46:52.525Z,2.80
2023-03-18T07:49:21.712Z,2.97
2023-03-18T07:51:50.098Z,2.70
2023-03-18T07:54:20.083Z,3.05
2023-03-18T07:56:48.836Z,3.20
2023-03-18T07:59:18.771Z,3.40
2023-03-18T08:01:49.040Z,3.20
2023-03-18T08:04:17.939Z,3.47
2023-03-18T08:06:46.489Z,3.60
2023-03-18T08:09:15.892Z,3.38
2023-03-18T08:11:44.374Z,3.10
2023-03-18T08:14:13.820Z,3.20
2023-03-18T08:16:43.381Z,3.60
2023-03-18T08:19:13.403Z,3.20
2023-03-18T08:21:42.900Z,3.35
2023-03-18T08:24:11.889Z,2.92
2023-03-18T08:26:40.490Z,3.08
2023-03-18T08:29:08.976Z,3.30
2023-03-18T08:31:37.403Z,3.30
2023-03-18T08:34:05.969Z,3.20
2023-03-18T08:36:37.203Z,3.25
2023-03-18T08:39:06.004Z,3.13
2023-03-18T08:41:34.562Z,3.05
2023-03-18T08:44:03.333Z,3.10
2023-03-18T08:46:31.852Z,2.60
2023-03-18T08:49:00.855Z,2.50
2023-03-18T08:51:29.315Z,2.80
2023-03-18T08:53:59.200Z,2.95
2023-03-18T08:56:28.133Z,3.08
2023-03-18T08:58:56.700Z,3.10
2023-03-18T09:01:25.182Z,3.00
2023-03-18T09:03:56.227Z,2.78
2023-03-18T09:06:24.755Z,2.92
2023-03-18T09:08:53.350Z,3.20
2023-03-18T09:11:24.566Z,3.05
2023-03-18T09:13:53.628Z,2.53
2023-03-18T09:16:22.993Z,3.00
2023-03-18T09:18:51.444Z,2.92
2023-03-18T09:21:20.305Z,3.05
2023-03-18T09:23:49.690Z,2.67
2023-03-18T09:26:18.523Z,2.75
2023-03-18T09:28:48.425Z,3.30
2023-03-18T09:31:17.112Z,2.70
2023-03-18T09:33:47.013Z,2.80
2023-03-18T09:36:15.762Z,2.60
2023-03-18T09:38:44.266Z,2.47
2023-03-18T09:41:25.703Z,2.63
2023-03-18T09:44:04.139Z,2.60
2023-03-18T09:46:42.794Z,2.58
2023-03-18T09:49:24.792Z,2.30
2023-03-18T09:52:03.666Z,2.30
2023-03-18T09:54:39.667Z,2.42
2023-03-18T09:57:18.575Z,2.33
2023-03-18T09:59:54.749Z,2.20
2023-03-18T10:02:28.864Z,2.40
2023-03-18T10:05:00.923Z,2.53
2023-03-18T10:07:34.666Z,2.60
2023-03-18T10:10:10.648Z,2.50
2023-03-18T10:12:45.312Z,2.30
2023-03-18T10:15:22.380Z,2.40
2023-03-18T10:17:57.429Z,2.38
2023-03-18T10:20:34.394Z,2.30
2023-03-18T10:23:14.816Z,2.22
2023-03-18T10:25:48.895Z,2.30
2023-03-18T10:28:49.222Z,2.38
2023-03-18T10:31:29.702Z,2.47
2023-03-18T10:34:00.513Z,2.10
2023-03-18T10:36:36.024Z,2.03
2023-03-18T10:39:04.841Z,1.98
2023-03-18T10:41:35.908Z,1.80
2023-03-18T10:44:08.429Z,2.10
2023-03-18T10:46:39.681Z,1.95
2023-03-18T10:49:16.087Z,1.92
2023-03-18T10:51:48.866Z,1.80
2023-03-18T10:54:24.197Z,1.77
2023-03-18T10:56:53.567Z,1.80
2023-03-18T10:59:24.574Z,1.70
2023-03-18T11:01:59.348Z,1.70
2023-03-18T11:04:30.601Z,1.85
2023-03-18T11:07:02.839Z,1.70
2023-03-18T11:09:34.249Z,1.85
2023-03-18T11:12:05.933Z,1.80
2023-03-18T11:14:37.306Z,1.73
2023-03-18T11:17:20.040Z,1.98
2023-03-18T11:19:50.453Z,1.70
2023-03-18T11:22:22.489Z,1.63
2023-03-18T11:25:13.634Z,1.70
2023-03-18T11:27:44.104Z,1.70
2023-03-18T11:30:21.426Z,1.83
2023-03-18T11:33:05.657Z,1.50
2023-03-18T11:38:07.343Z,1.40
2023-03-18T11:40:35.895Z,1.63
2023-03-18T11:43:17.575Z,1.90
2023-03-18T11:45:52.132Z,1.55
2023-03-18T11:48:30.511Z,1.80
2023-03-18T11:51:14.559Z,2.00
2023-03-18T11:53:56.324Z,1.80
2023-03-18T11:56:30.914Z,1.80
2023-03-18T11:59:21.324Z,2.00
2023-03-18T12:02:01.687Z,1.70
2023-03-18T12:04:59.251Z,1.50
2023-03-18T12:07:43.591Z,1.50
2023-03-18T12:10:26.220Z,1.70
2023-03-18T12:13:11.752Z,1.50
2023-03-18T12:15:48.245Z,1.60
2023-03-18T12:18:33.379Z,1.40
2023-03-18T12:21:11.049Z,1.70
2023-03-18T12:24:04.050Z,1.80
2023-03-18T12:26:40.375Z,1.80
2023-03-18T12:29:43.590Z,1.80
2023-03-18T12:32:24.966Z,2.10
2023-03-18T12:35:09.207Z,2.03
2023-03-18T12:37:50.719Z,2.22
2023-03-18T12:40:32.028Z,1.77
2023-03-18T12:43:26.108Z,1.90
2023-03-18T12:46:02.493Z,1.80
2023-03-18T12:48:43.825Z,1.70
2023-03-18T12:51:18.254Z,1.80
2023-03-18T12:53:51.193Z,1.70
2023-03-18T12:56:22.374Z,1.58
2023-03-18T12:58:53.662Z,1.98
2023-03-18T13:01:28.149Z,1.80
2023-03-18T13:04:02.754Z,1.80
2023-03-18T13:09:09.937Z,1.60
2023-03-18T13:12:05.696Z,1.60
2023-03-18T13:14:44.848Z,1.83
2023-03-18T13:17:16.583Z,1.60
2023-03-18T13:19:45.894Z,1.58
2023-03-18T13:22:49.109Z,1.50
2023-03-18T13:25:31.726Z,1.40
2023-03-18T13:28:12.471Z,1.40
2023-03-18T13:30:57.640Z,1.30
2023-03-18T13:33:42.281Z,1.33
2023-03-18T13:36:29.726Z,1.20
2023-03-18T13:39:10.154Z,1.30
2023-03-18T13:41:55.400Z,1.33
2023-03-18T13:44:27.717Z,1.50
2023-03-18T13:47:01.725Z,1.30
2023-03-18T13:49:31.956Z,1.20
2023-03-18T13:52:02.325Z,1.30
2023-03-18T13:54:36.052Z,1.35
2023-03-18T13:57:33.477Z,1.20
2023-03-18T14:00:25.533Z,1.20
2023-03-18T14:03:26.887Z,1.20
2023-03-18T14:06:22.001Z,1.40
2023-03-18T14:08:52.542Z,1.35
2023-03-18T14:11:47.950Z,1.27
2023-03-18T14:14:54.508Z,1.40
2023-03-18T14:17:39.170Z,1.13
2023-03-18T14:20:21.837Z,1.20
2023-03-18T14:22:52.367Z,1.42
2023-03-18T14:25:27.239Z,1.63
2023-03-18T14:28:00.332Z,1.42
2023-03-18T14:30:45.125Z,1.40
2023-03-18T14:36:10.308Z,1.42
2023-03-18T14:38:49.977Z,1.20
2023-03-18T14:41:23.551Z,1.10
2023-03-18T14:44:07.564Z,1.13
2023-03-18T14:46:41.415Z,1.20
2023-03-18T14:49:33.898Z,1.10
2023-03-18T14:52:06.000Z,1.10
2023-03-18T14:54:43.594Z,1.10
2023-03-18T14:57:13.317Z,1.17
2023-03-18T14:59:41.761Z,1.00
2023-03-18T15:02:23.875Z,1.02
2023-03-18T15:04:55.926Z,1.40
2023-03-18T15:07:33.616Z,1.25
2023-03-18T15:10:11.754Z,1.35
2023-03-18T15:12:43.090Z,1.30
2023-03-18T15:15:17.687Z,1.30
2023-03-18T15:20:17.971Z,1.30
2023-03-18T15:22:46.786Z,1.20
2023-03-18T15:25:20.579Z,1.30
2023-03-18T15:27:49.780Z,1.10
2023-03-18T15:30:27.001Z,1.20
2023-03-18T15:33:04.656Z,1.00
2023-03-18T15:35:33.895Z,1.10
2023-03-18T15:38:17.289Z,1.20
2023-03-18T15:40:53.529Z,1.02
2023-03-18T15:43:35.852Z,1.30
2023-03-18T15:46:09.357Z,1.23
2023-03-18T15:48:41.575Z,1.30
2023-03-18T15:51:25.954Z,2.10
2023-03-18T15:53:55.925Z,3.10
2023-03-18T15:56:31.450Z,2.08
2023-03-18T15:59:06.836Z,1.73
2023-03-18T16:01:36.386Z,1.50
2023-03-18T16:04:12.254Z,1.50
2023-03-18T16:06:41.226Z,1.30
2023-03-18T16:09:18.215Z,1.35
2023-03-18T16:11:50.574Z,1.30
2023-03-18T16:14:21.621Z,1.33
2023-03-18T16:16:50.533Z,1.30
2023-03-18T16:19:27.700Z,1.33
2023-03-18T16:21:58.243Z,1.27
2023-03-18T16:24:27.157Z,1.30
2023-03-18T16:26:56.767Z,1.38
2023-03-18T16:29:29.077Z,1.30
2023-03-18T16:31:57.702Z,1.20
2023-03-18T16:34:27.782Z,1.15
2023-03-18T16:36:57.126Z,1.10
2023-03-18T16:39:33.840Z,1.30
2023-03-18T16:42:04.367Z,1.27
2023-03-18T16:44:35.798Z,1.27
2023-03-18T16:47:04.296Z,1.20
2023-03-18T16:49:36.628Z,1.30
2023-03-18T16:52:05.274Z,1.15
2023-03-18T16:54:34.741Z,1.38
2023-03-18T16:57:05.464Z,1.38
2023-03-18T16:59:37.534Z,1.35
2023-03-18T17:02:06.145Z,1.40
2023-03-18T17:04:36.779Z,1.27
2023-03-18T17:07:06.133Z,1.23
2023-03-18T17:09:34.791Z,1.30
2023-03-18T17:12:07.147Z,1.10
2023-03-18T17:14:38.671Z,1.30
2023-03-18T17:17:12.872Z,1.30
2023-03-18T17:19:42.660Z,1.30
2023-03-18T17:22:21.613Z,1.40
2023-03-18T17:24:50.731Z,1.20
2023-03-18T17:27:22.011Z,1.27
2023-03-18T17:29:51.075Z,1.20
2023-03-18T17:32:20.210Z,1.13
2023-03-18T17:34:51.788Z,1.20
2023-03-18T17:37:21.421Z,1.17
2023-03-18T17:39:49.758Z,1.30
2023-03-18T17:42:30.860Z,1.35
2023-03-18T17:45:05.424Z,1.35
2023-03-18T17:50:05.064Z,1.20
2023-03-18T17:52:34.045Z,1.13
2023-03-18T17:55:02.516Z,1.23
2023-03-18T17:57:32.014Z,1.20
2023-03-18T18:00:00.472Z,1.30
2023-03-18T18:02:29.117Z,1.05
2023-03-18T18:04:58.789Z,1.38
2023-03-18T18:07:28.639Z,1.40
2023-03-18T18:09:59.158Z,1.13
2023-03-18T18:12:28.813Z,1.20
2023-03-18T18:14:57.624Z,1.30
2023-03-18T18:17:26.172Z,1.10
2023-03-18T18:19:54.650Z,1.42
2023-03-18T18:22:26.617Z,1.25
2023-03-18T18:24:57.865Z,1.40
2023-03-18T18:27:26.361Z,1.25
2023-03-18T18:29:54.948Z,1.30
2023-03-18T18:32:24.864Z,1.35
2023-03-18T18:34:53.337Z,1.23
2023-03-18T18:37:21.835Z,1.30
2023-03-18T18:39:50.321Z,1.30
2023-03-18T18:42:20.139Z,1.40
2023-03-18T18:44:48.671Z,1.40
2023-03-18T18:47:19.335Z,1.48
2023-03-18T18:49:48.014Z,1.33
2023-03-18T18:52:16.982Z,1.48
2023-03-18T18:54:46.029Z,1.42
2023-03-18T18:57:28.316Z,1.35
2023-03-18T18:59:57.448Z,1.30
2023-03-18T19:02:30.662Z,1.20
2023-03-18T19:05:00.000Z,1.40
2023-03-18T19:07:29.446Z,1.10
2023-03-18T19:09:58.547Z,1.52
2023-03-18T19:12:28.674Z,1.42
2023-03-18T19:14:57.553Z,1.50
2023-03-18T19:17:26.312Z,1.50
2023-03-18T19:19:54.878Z,1.50
2023-03-18T19:22:24.082Z,1.50
2023-03-18T19:24:53.015Z,1.52
2023-03-18T19:27:24.747Z,1.40
2023-03-18T19:29:57.177Z,1.38
2023-03-18T19:32:27.025Z,1.30
2023-03-18T19:34:56.022Z,1.50
2023-03-18T19:37:27.594Z,1.40
2023-03-18T19:39:56.357Z,1.40
2023-03-18T19:42:24.844Z,1.38
2023-03-18T19:44:54.744Z,1.38
2023-03-18T19:47:25.789Z,1.50
2023-03-18T19:49:54.362Z,1.55
2023-03-18T19:52:24.921Z,1.50
2023-03-18T19:54:54.759Z,1.38
2023-03-18T19:57:26.061Z,1.33
2023-03-18T19:59:58.015Z,1.50
2023-03-18T20:02:28.794Z,1.50
2023-03-18T20:04:59.084Z,1.48
2023-03-18T20:07:29.724Z,1.30
2023-03-18T20:09:58.394Z,1.40
2023-03-18T20:12:37.407Z,1.50
2023-03-18T20:15:11.868Z,1.40
2023-03-18T20:17:41.660Z,1.50
2023-03-18T20:20:15.982Z,1.30
2023-03-18T20:22:48.069Z,1.55
2023-03-18T20:25:20.830Z,1.50
2023-03-18T20:27:50.656Z,1.52
2023-03-18T20:30:26.140Z,1.40
2023-03-18T20:32:55.111Z,1.60
2023-03-18T20:35:27.097Z,1.60
2023-03-18T20:37:57.242Z,1.70
2023-03-18T20:40:28.042Z,1.60
2023-03-18T20:42:56.842Z,1.85
2023-03-18T20:45:27.183Z,1.75
2023-03-18T20:47:56.621Z,1.40
2023-03-18T20:50:29.848Z,1.60
2023-03-18T20:52:58.692Z,1.55
2023-03-18T20:55:30.706Z,1.50
2023-03-18T20:58:00.610Z,1.60
2023-03-18T21:00:33.038Z,1.45
2023-03-18T21:03:03.337Z,1.60
2023-03-18T21:05:32.061Z,1.60
2023-03-18T21:08:00.893Z,1.50
2023-03-18T21:10:29.417Z,1.63
2023-03-18T21:12:57.907Z,1.48
2023-03-18T21:15:28.215Z,1.60
2023-03-18T21:17:58.364Z,1.50
2023-03-18T21:20:28.931Z,1.52
2023-03-18T21:22:57.439Z,1.50
2023-03-18T21:25:28.632Z,1.50
2023-03-18T21:27:57.739Z,1.50
2023-03-18T21:30:26.535Z,1.70
2023-03-18T21:32:55.131Z,1.67
2023-03-18T21:35:27.076Z,1.42
2023-03-18T21:37:55.565Z,1.50
2023-03-18T21:40:26.174Z,1.45
2023-03-18T21:42:54.795Z,1.63
2023-03-18T21:45:24.716Z,1.58
2023-03-18T21:47:53.438Z,1.60
2023-03-18T21:50:26.144Z,1.70
2023-03-18T21:52:56.131Z,1.50
2023-03-18T21:55:24.576Z,1.77
2023-03-18T21:57:52.990Z,1.80
2023-03-18T22:00:22.349Z,1.70
2023-03-18T22:02:51.560Z,1.70
2023-03-18T22:05:21.822Z,1.67
2023-03-18T22:07:52.466Z,1.88
2023-03-18T22:10:23.009Z,1.50
2023-03-18T22:12:51.807Z,1.63
2023-03-18T22:15:38.040Z,1.67
2023-03-18T22:18:07.643Z,1.67
2023-03-18T22:20:37.233Z,1.60
2023-03-18T22:23:16.376Z,1.90
2023-03-18T22:25:46.467Z,1.60
2023-03-18T22:28:15.292Z,1.80
2023-03-18T22:30:46.412Z,1.48
2023-03-18T22:33:21.481Z,1.60
2023-03-18T22:35:49.983Z,1.75
2023-03-18T22:38:21.602Z,1.70
2023-03-18T22:40:52.675Z,1.70
2023-03-18T22:43:32.264Z,1.63
2023-03-18T22:46:01.594Z,1.50
2023-03-18T22:48:30.561Z,1.58
2023-03-18T22:51:00.175Z,1.40
2023-03-18T22:53:32.539Z,1.48
2023-03-18T22:56:06.483Z,1.60
2023-03-18T22:58:35.024Z,1.80
2023-03-18T23:01:03.647Z,1.70
2023-03-18T23:03:34.381Z,1.65
2023-03-18T23:06:04.244Z,1.83
2023-03-18T23:08:34.041Z,2.00
2023-03-18T23:11:02.709Z,1.63
2023-03-18T23:13:35.929Z,1.98
2023-03-18T23:16:06.281Z,1.80
2023-03-18T23:18:34.983Z,1.80
2023-03-18T23:21:03.480Z,1.90
2023-03-18T23:23:32.025Z,1.70
2023-03-18T23:26:01.943Z,1.70
2023-03-18T23:28:31.957Z,2.15
2023-03-18T23:31:03.020Z,2.00
2023-03-18T23:33:32.024Z,1.83
2023-03-18T23:36:00.498Z,1.70
2023-03-18T23:38:28.988Z,1.75
2023-03-18T23:40:57.469Z,1.80
2023-03-18T23:43:27.311Z,1.65
2023-03-18T23:45:56.079Z,2.00
2023-03-18T23:48:24.616Z,1.70
2023-03-18T23:50:53.593Z,1.70
2023-03-18T23:53:22.005Z,1.70
2023-03-18T23:55:50.711Z,1.70
2023-03-18T23:58:19.338Z,2.05
